createdAt,value
2019-01-27T00:03:34.038Z,71.56
2019-01-27T00:08:37.331Z,71.29
2019-01-27T00:13:40.525Z,71.21
2019-01-27T00:18:43.844Z,71.10
2019-01-27T00:23:47.090Z,71.21
2019-01-27T00:28:50.306Z,71.18
2019-01-27T00:33:53.516Z,71.16
2019-01-27T00:38:56.782Z,71.23
2019-01-27T00:44:00.034Z,71.08
2019-01-27T00:49:03.291Z,71.41
2019-01-27T00:54:06.587Z,71.00
2019-01-27T00:59:09.800Z,70.93
2019-01-27T01:04:12.985Z,70.89
2019-01-27T01:09:16.253Z,71.01
2019-01-27T01:14:19.459Z,70.89
2019-01-27T01:19:22.765Z,70.73
2019-01-27T01:24:25.981Z,70.71
2019-01-27T01:29:29.173Z,70.65
2019-01-27T01:34:32.382Z,70.79
2019-01-27T01:39:35.573Z,70.70
2019-01-27T01:44:38.918Z,70.72
2019-01-27T01:49:42.141Z,70.82
2019-01-27T01:54:45.394Z,71.22
2019-01-27T01:59:48.582Z,70.99
2019-01-27T02:04:51.805Z,71.04
2019-01-27T02:09:54.994Z,71.25
2019-01-27T02:14:58.202Z,71.57
2019-01-27T02:20:01.488Z,71.55
2019-01-27T02:25:04.809Z,71.25
2019-01-27T02:30:08.767Z,70.60
2019-01-27T02:35:12.062Z,70.60
2019-01-27T02:40:15.345Z,70.45
2019-01-27T02:45:18.607Z,70.79
2019-01-27T02:50:21.871Z,71.00
2019-01-27T02:55:29.004Z,70.93
2019-01-27T03:00:32.270Z,70.38
2019-01-27T03:05:42.623Z,70.39
2019-01-27T03:10:45.883Z,70.36
2019-01-27T03:15:49.120Z,69.97
2019-01-27T03:20:52.412Z,69.68
2019-01-27T03:25:55.662Z,69.73
2019-01-27T03:30:58.855Z,69.76
2019-01-27T03:36:02.089Z,69.74
2019-01-27T03:41:05.404Z,69.59
2019-01-27T03:46:08.611Z,69.90
2019-01-27T03:51:11.819Z,69.53
2019-01-27T03:56:15.099Z,69.36
2019-01-27T04:01:18.272Z,69.29
2019-01-27T04:06:21.506Z,69.19
2019-01-27T04:11:24.698Z,69.21
2019-01-27T04:16:27.893Z,69.31
2019-01-27T04:21:31.066Z,68.85
2019-01-27T04:26:35.346Z,69.08
2019-01-27T04:31:38.579Z,69.00
2019-01-27T04:36:41.771Z,68.90
2019-01-27T04:41:45.019Z,68.69
2019-01-27T04:46:48.229Z,68.70
2019-01-27T04:51:51.801Z,68.49
2019-01-27T04:56:55.134Z,68.17
2019-01-27T05:01:58.325Z,68.22
2019-01-27T05:07:01.676Z,68.25
2019-01-27T05:12:05.368Z,68.30
2019-01-27T05:17:08.551Z,68.46
2019-01-27T05:22:11.822Z,68.39
2019-01-27T05:27:15.126Z,68.23
2019-01-27T05:32:18.319Z,68.50
2019-01-27T05:37:21.581Z,68.39
2019-01-27T05:42:24.774Z,68.81
2019-01-27T05:47:28.009Z,68.79
2019-01-27T05:52:31.260Z,68.69
2019-01-27T05:57:34.718Z,68.59
2019-01-27T06:02:38.213Z,68.55
2019-01-27T06:07:41.422Z,68.30
2019-01-27T06:12:44.754Z,68.21
2019-01-27T06:17:47.977Z,68.34
2019-01-27T06:22:51.194Z,68.02
2019-01-27T06:27:54.374Z,67.86
2019-01-27T06:33:19.921Z,68.01
2019-01-27T06:38:26.191Z,67.80
2019-01-27T06:43:29.406Z,67.63
2019-01-27T06:48:32.650Z,67.47
2019-01-27T06:53:35.851Z,67.35
2019-01-27T06:58:44.213Z,67.68
2019-01-27T07:03:53.723Z,67.74
2019-01-27T07:09:05.139Z,67.51
2019-01-27T07:14:12.424Z,67.17
2019-01-27T07:19:20.697Z,66.86
2019-01-27T07:24:37.949Z,66.77
2019-01-27T07:29:46.234Z,66.99
2019-01-27T07:34:54.702Z,67.12
2019-01-27T07:40:05.917Z,67.41
2019-01-27T07:45:47.734Z,67.25
2019-01-27T07:50:56.290Z,67.19
2019-01-27T07:56:04.484Z,67.28
2019-01-27T08:01:13.824Z,67.41
2019-01-27T08:06:22.125Z,66.76
2019-01-27T08:11:31.417Z,66.77
2019-01-27T08:16:39.869Z,66.63
2019-01-27T08:21:48.385Z,66.29
2019-01-27T08:26:56.794Z,66.03
2019-01-27T08:32:19.189Z,66.58
2019-01-27T08:37:26.646Z,66.64
2019-01-27T08:42:35.169Z,67.09
2019-01-27T08:47:38.371Z,67.62
2019-01-27T08:52:41.581Z,67.78
2019-01-27T08:57:44.918Z,67.93
2019-01-27T09:02:53.341Z,67.91
2019-01-27T09:08:01.759Z,67.94
2019-01-27T09:13:11.392Z,67.80
2019-01-27T09:18:27.829Z,67.82
2019-01-27T09:23:35.222Z,67.63
2019-01-27T09:28:43.722Z,67.53
2019-01-27T09:33:52.143Z,67.18
2019-01-27T09:39:04.662Z,66.88
2019-01-27T09:46:20.330Z,67.34
2019-01-27T09:51:58.684Z,67.60
2019-01-27T09:57:24.342Z,67.90
2019-01-27T10:02:34.888Z,68.21
2019-01-27T10:07:43.086Z,68.49
2019-01-27T10:12:57.358Z,68.62
2019-01-27T10:18:36.938Z,69.07
2019-01-27T10:23:45.470Z,69.35
2019-01-27T10:28:57.106Z,69.55
2019-01-27T10:34:05.605Z,69.82
2019-01-27T10:39:14.731Z,69.65
2019-01-27T10:44:22.201Z,69.73
2019-01-27T10:49:30.523Z,69.65
2019-01-27T10:54:42.917Z,69.77
2019-01-27T10:59:54.240Z,69.99
2019-01-27T11:05:38.705Z,69.79
2019-01-27T11:10:53.189Z,69.65
2019-01-27T11:16:15.478Z,69.54
2019-01-27T11:21:38.833Z,69.36
2019-01-27T11:27:20.206Z,68.64
2019-01-27T11:32:28.842Z,68.35
2019-01-27T11:37:36.283Z,67.17
2019-01-27T11:42:44.859Z,66.61
2019-01-27T11:47:52.326Z,67.01
2019-01-27T11:52:59.573Z,67.03
2019-01-27T11:58:02.994Z,67.08
2019-01-27T12:03:06.322Z,67.24
2019-01-27T12:08:09.856Z,67.38
2019-01-27T12:13:13.159Z,67.67
2019-01-27T12:18:16.589Z,67.30
2019-01-27T12:23:19.987Z,67.36
2019-01-27T12:28:23.406Z,67.18
2019-01-27T12:33:26.813Z,67.53
2019-01-27T12:38:30.110Z,67.25
2019-01-27T12:43:33.415Z,67.13
2019-01-27T12:48:36.721Z,67.23
2019-01-27T12:53:40.219Z,66.93
2019-01-27T12:58:43.599Z,66.71
2019-01-27T13:03:46.951Z,67.01
2019-01-27T13:08:50.430Z,67.23
2019-01-27T13:13:53.841Z,67.28
2019-01-27T13:18:57.379Z,67.26
2019-01-27T13:24:00.786Z,67.11
2019-01-27T13:29:04.248Z,66.78
2019-01-27T13:34:07.654Z,66.02
2019-01-27T13:39:11.152Z,63.88
2019-01-27T13:44:14.687Z,64.86
2019-01-27T13:49:18.131Z,64.83
2019-01-27T13:54:21.593Z,64.61
2019-01-27T13:59:25.086Z,65.21
2019-01-27T14:04:28.535Z,64.86
2019-01-27T14:09:32.091Z,62.68
2019-01-27T14:14:35.449Z,61.26
2019-01-27T14:19:38.753Z,62.46
2019-01-27T14:24:42.125Z,61.74
2019-01-27T14:29:45.546Z,62.82
2019-01-27T14:34:49.102Z,63.63
2019-01-27T14:39:52.462Z,62.62
2019-01-27T14:44:55.804Z,62.54
2019-01-27T14:49:59.131Z,58.69
2019-01-27T14:55:02.448Z,59.00
2019-01-27T15:00:07.738Z,60.39
2019-01-27T15:05:11.962Z,63.09
2019-01-27T15:10:16.830Z,63.01
2019-01-27T15:15:20.485Z,63.89
2019-01-27T15:20:26.981Z,64.43
2019-01-27T15:25:30.479Z,64.83
2019-01-27T15:30:33.969Z,65.11
2019-01-27T15:35:37.318Z,65.14
2019-01-27T15:40:40.710Z,65.71
2019-01-27T15:45:44.022Z,66.14
2019-01-27T15:50:47.553Z,65.92
2019-01-27T15:55:50.950Z,66.30
2019-01-27T16:00:54.266Z,66.15
2019-01-27T16:05:57.605Z,66.84
2019-01-27T16:11:00.990Z,67.16
2019-01-27T16:16:04.652Z,67.24
2019-01-27T16:21:08.029Z,67.18
2019-01-27T16:26:14.173Z,67.37
2019-01-27T16:31:22.512Z,67.73
2019-01-27T16:36:25.862Z,68.04
2019-01-27T16:41:29.290Z,68.07
2019-01-27T16:46:32.590Z,68.10
2019-01-27T16:51:35.932Z,68.75
2019-01-27T16:56:39.368Z,68.65
2019-01-27T17:01:42.782Z,68.54
2019-01-27T17:06:46.161Z,69.03
2019-01-27T17:11:49.571Z,68.59
2019-01-27T17:16:52.969Z,69.12
2019-01-27T17:21:56.258Z,69.17
2019-01-27T17:26:59.554Z,68.51
2019-01-27T17:32:02.974Z,68.45
2019-01-27T17:37:06.278Z,68.54
2019-01-27T17:42:09.642Z,68.24
2019-01-27T17:47:12.986Z,68.45
2019-01-27T17:52:16.333Z,68.49
2019-01-27T17:57:33.683Z,68.40
2019-01-27T18:02:48.144Z,68.71
2019-01-27T18:07:55.642Z,68.21
2019-01-27T18:13:03.339Z,68.20
2019-01-27T18:18:06.771Z,67.93
2019-01-27T18:23:10.121Z,67.44
2019-01-27T18:28:14.528Z,66.75
2019-01-27T18:33:17.889Z,67.04
2019-01-27T18:38:21.328Z,66.46
2019-01-27T18:43:25.599Z,66.17
2019-01-27T18:48:28.928Z,65.98
2019-01-27T18:53:37.602Z,65.61
2019-01-27T19:00:49.150Z,65.97
2019-01-27T19:06:05.457Z,66.25
2019-01-27T19:11:13.948Z,66.45
2019-01-27T19:16:23.314Z,66.59
2019-01-27T19:21:32.802Z,66.68
2019-01-27T19:26:41.414Z,66.15
2019-01-27T19:31:53.847Z,66.25
2019-01-27T19:37:04.274Z,66.00
2019-01-27T19:42:12.036Z,65.54
2019-01-27T19:47:21.622Z,65.67
2019-01-27T19:52:34.099Z,66.04
2019-01-27T19:57:44.619Z,65.68
2019-01-27T20:02:53.321Z,65.83
2019-01-27T20:10:03.127Z,65.38
2019-01-27T20:15:14.145Z,65.62
2019-01-27T20:22:25.498Z,65.38
2019-01-27T20:27:38.599Z,65.35
2019-01-27T20:32:49.552Z,65.41
2019-01-27T20:40:05.111Z,65.48
2019-01-27T20:45:19.067Z,65.76
2019-01-27T20:50:32.645Z,65.44
2019-01-27T20:55:44.952Z,65.59
2019-01-27T21:00:59.861Z,65.71
2019-01-27T21:06:08.352Z,65.62
2019-01-27T21:11:19.213Z,65.59
2019-01-27T21:16:33.752Z,65.51
2019-01-27T21:21:37.133Z,65.78
2019-01-27T21:26:40.626Z,65.40
2019-01-27T21:31:43.905Z,64.99
2019-01-27T21:36:47.679Z,65.35
2019-01-27T21:41:51.191Z,65.31
2019-01-27T21:46:54.783Z,65.51
2019-01-27T21:51:58.436Z,66.02
2019-01-27T21:57:02.263Z,66.02
2019-01-27T22:02:06.059Z,66.71
2019-01-27T22:07:09.513Z,66.76
2019-01-27T22:12:13.056Z,66.73
2019-01-27T22:17:16.701Z,66.70
2019-01-27T22:22:20.006Z,66.82
2019-01-27T22:27:23.678Z,66.86
2019-01-27T22:32:27.262Z,66.77
2019-01-27T22:37:30.807Z,66.71
2019-01-27T22:42:34.318Z,66.81
2019-01-27T22:47:37.885Z,66.59
2019-01-27T22:52:41.124Z,66.82
2019-01-27T22:57:44.346Z,66.81
2019-01-27T23:02:47.529Z,66.68
2019-01-27T23:07:50.779Z,66.89
2019-01-27T23:12:53.967Z,67.32
2019-01-27T23:17:57.254Z,67.46
2019-01-27T23:23:00.451Z,67.28
2019-01-27T23:28:03.670Z,67.58
2019-01-27T23:33:06.895Z,68.00
2019-01-27T23:38:10.242Z,67.93
2019-01-27T23:43:14.271Z,67.78
2019-01-27T23:48:17.594Z,67.95
2019-01-27T23:53:20.822Z,67.86
2019-01-27T23:58:24.059Z,68.43
